Time;durP1;ratioP1;P1;durP2;ratioP2;P2;SDS_P1;SDS_P2;PMS_P1;PMS_P2;Temp;Humidity;BMP_temperature;BMP_pressure;BME280_temperature;BME280_humidity;BME280_pressure;Samples;Min_cycle;Max_cycle;Signal;HPM_P1;HPM_P2
2023/10/12 00:01:25;;;;;;;14.93;6.88;;;;;;;;;;5070234;28;20106;-68
2023/10/12 00:03:57;;;;;;;12.90;7.07;;;;;;;;;;5052729;28;20041;-67
2023/10/12 00:06:26;;;;;;;15.25;7.20;;;;;;;;;;5052479;28;20110;-68
2023/10/12 00:08:52;;;;;;;17.02;8.13;;;;;;;;;;5052379;28;20118;-68
2023/10/12 00:11:20;;;;;;;17.77;9.38;;;;;;;;;;5053881;28;20049;-67
2023/10/12 00:13:51;;;;;;;17.30;9.50;;;;;;;;;;5072767;28;20041;-67
2023/10/12 00:16:19;;;;;;;18.27;8.70;;;;;;;;;;5072945;28;20070;-67
2023/10/12 00:18:49;;;;;;;15.50;8.07;;;;;;;;;;5071864;28;20055;-67
2023/10/12 00:21:25;;;;;;;16.95;7.57;;;;;;;;;;5072450;28;20066;-67
2023/10/12 00:23:52;;;;;;;17.20;8.20;;;;;;;;;;5072648;28;20049;-67
2023/10/12 00:26:22;;;;;;;14.20;7.30;;;;;;;;;;5064527;28;20048;-68
2023/10/12 00:28:51;;;;;;;18.70;7.75;;;;;;;;;;5072125;28;20139;-68
2023/10/12 00:31:17;;;;;;;15.00;6.80;;;;;;;;;;5070479;28;20139;-67
2023/10/12 00:33:44;;;;;;;13.82;6.93;;;;;;;;;;5052386;28;20076;-68
2023/10/12 00:36:19;;;;;;;11.75;7.10;;;;;;;;;;5051896;28;20056;-68
2023/10/12 00:38:46;;;;;;;11.70;6.35;;;;;;;;;;5066323;28;20561;-68
2023/10/12 00:41:14;;;;;;;12.50;6.90;;;;;;;;;;5053945;28;20128;-68
2023/10/12 00:43:52;;;;;;;12.82;6.25;;;;;;;;;;5051649;28;20576;-67
2023/10/12 00:46:33;;;;;;;11.57;6.68;;;;;;;;;;5052192;28;20441;-68
2023/10/12 00:49:22;;;;;;;14.25;6.30;;;;;;;;;;5051907;28;20505;-66
2023/10/12 00:51:51;;;;;;;12.60;6.38;;;;;;;;;;5051926;28;20500;-67
2023/10/12 00:54:26;;;;;;;11.55;6.97;;;;;;;;;;5061946;28;20052;-67
2023/10/12 00:56:56;;;;;;;13.50;7.22;;;;;;;;;;5065522;28;20049;-67
2023/10/12 00:59:27;;;;;;;13.57;6.85;;;;;;;;;;5071244;28;20405;-68
2023/10/12 01:01:54;;;;;;;12.70;7.07;;;;;;;;;;5071905;28;20072;-68
2023/10/12 01:04:22;;;;;;;12.00;6.60;;;;;;;;;;5071681;28;20048;-68
2023/10/12 01:06:49;;;;;;;8.25;6.07;;;;;;;;;;5072055;28;20139;-67
2023/10/12 01:09:19;;;;;;;15.75;6.72;;;;;;;;;;5071847;28;20058;-67
2023/10/12 01:11:52;;;;;;;10.85;6.30;;;;;;;;;;5072030;28;20045;-67
2023/10/12 01:14:23;;;;;;;12.48;6.32;;;;;;;;;;5071950;28;20412;-68
2023/10/12 01:16:54;;;;;;;14.75;6.05;;;;;;;;;;5071632;28;20481;-67
2023/10/12 01:19:22;;;;;;;9.48;5.93;;;;;;;;;;5059991;28;20049;-67
2023/10/12 01:21:50;;;;;;;8.70;5.75;;;;;;;;;;5051735;28;20048;-67
2023/10/12 01:24:17;;;;;;;12.80;6.22;;;;;;;;;;5051812;28;20075;-67
2023/10/12 01:26:48;;;;;;;11.80;6.55;;;;;;;;;;5052015;28;20051;-68
2023/10/12 01:29:20;;;;;;;10.30;6.22;;;;;;;;;;5051558;28;20054;-67
2023/10/12 01:31:52;;;;;;;11.70;5.47;;;;;;;;;;5051431;28;20134;-67
2023/10/12 01:34:22;;;;;;;10.50;6.25;;;;;;;;;;5051751;28;20049;-67
2023/10/12 01:36:54;;;;;;;11.25;5.97;;;;;;;;;;5051940;28;20105;-66
2023/10/12 01:39:20;;;;;;;11.63;6.28;;;;;;;;;;5051354;28;20106;-68
2023/10/12 01:41:51;;;;;;;12.15;6.38;;;;;;;;;;5057531;28;20044;-67
2023/10/12 01:44:18;;;;;;;11.43;6.13;;;;;;;;;;5061217;28;20045;-67
2023/10/12 01:46:49;;;;;;;12.32;5.75;;;;;;;;;;5064393;28;20045;-67
2023/10/12 01:49:17;;;;;;;10.85;6.10;;;;;;;;;;5060747;28;20048;-67
2023/10/12 01:51:46;;;;;;;12.43;5.85;;;;;;;;;;5051447;28;20049;-68
2023/10/12 01:54:22;;;;;;;10.15;5.97;;;;;;;;;;5051349;28;20041;-67
2023/10/12 01:56:51;;;;;;;10.75;5.97;;;;;;;;;;5067759;28;20477;-67
2023/10/12 01:59:19;;;;;;;11.95;6.38;;;;;;;;;;5075105;28;20041;-68
2023/10/12 02:01:54;;;;;;;12.32;6.30;;;;;;;;;;5061276;28;20136;-67
2023/10/12 02:04:21;;;;;;;10.85;5.78;;;;;;;;;;5054664;28;20045;-66
2023/10/12 02:06:48;;;;;;;10.52;5.05;;;;;;;;;;5054889;28;20147;-67
2023/10/12 02:09:21;;;;;;;10.60;5.57;;;;;;;;;;5063070;28;20059;-67
2023/10/12 02:11:53;;;;;;;11.50;5.97;;;;;;;;;;5069252;28;20056;-67
2023/10/12 02:14:31;;;;;;;11.93;6.03;;;;;;;;;;5070787;28;20048;-67
2023/10/12 02:17:02;;;;;;;8.52;5.25;;;;;;;;;;5054776;28;20095;-67
2023/10/12 02:19:38;;;;;;;10.60;6.05;;;;;;;;;;5058528;28;20102;-67
2023/10/12 02:22:05;;;;;;;9.65;5.53;;;;;;;;;;5075005;28;20143;-67
2023/10/12 02:24:35;;;;;;;15.10;5.43;;;;;;;;;;5074528;28;20253;-67
2023/10/12 02:27:03;;;;;;;8.98;5.32;;;;;;;;;;5059173;28;20573;-67
2023/10/12 02:29:35;;;;;;;10.95;5.25;;;;;;;;;;5074305;28;20138;-67
2023/10/12 02:32:16;;;;;;;10.40;6.00;;;;;;;;;;5073593;28;20056;-68
2023/10/12 02:34:43;;;;;;;14.85;5.38;;;;;;;;;;5059565;28;20738;-67
2023/10/12 02:37:19;;;;;;;9.27;5.82;;;;;;;;;;5057514;28;20041;-68
2023/10/12 02:39:53;;;;;;;11.60;5.63;;;;;;;;;;5054156;28;20053;-68
2023/10/12 02:42:38;;;;;;;11.65;5.25;;;;;;;;;;5069633;28;20536;-67
2023/10/12 02:45:17;;;;;;;11.90;5.65;;;;;;;;;;5054132;28;20095;-68
2023/10/12 02:47:46;;;;;;;12.18;5.43;;;;;;;;;;5054330;28;20049;-67
2023/10/12 02:50:27;;;;;;;10.27;6.10;;;;;;;;;;5054077;28;20051;-67
2023/10/12 02:52:53;;;;;;;10.30;5.47;;;;;;;;;;5053889;28;20045;-67
2023/10/12 02:55:34;;;;;;;10.45;5.93;;;;;;;;;;5053821;28;20044;-68
2023/10/12 02:58:06;;;;;;;10.15;4.93;;;;;;;;;;5060870;28;20110;-68
2023/10/12 03:00:35;;;;;;;12.32;5.88;;;;;;;;;;5057866;28;20055;-67
2023/10/12 03:03:16;;;;;;;12.43;5.35;;;;;;;;;;5065800;28;20553;-68
2023/10/12 03:05:47;;;;;;;12.15;5.93;;;;;;;;;;5054199;28;20119;-67
2023/10/12 03:08:14;;;;;;;13.68;7.15;;;;;;;;;;5054108;28;20049;-67
2023/10/12 03:11:00;;;;;;;11.77;5.72;;;;;;;;;;5074117;28;20496;-67
2023/10/12 03:13:34;;;;;;;12.55;6.00;;;;;;;;;;5062424;28;20417;-67
2023/10/12 03:16:08;;;;;;;10.68;5.75;;;;;;;;;;5053735;28;20049;-68
2023/10/12 03:18:36;;;;;;;10.55;6.28;;;;;;;;;;5053507;28;20041;-67
2023/10/12 03:21:04;;;;;;;11.57;5.60;;;;;;;;;;5069892;28;20060;-68
2023/10/12 03:23:33;;;;;;;9.75;5.43;;;;;;;;;;5073340;28;20040;-67
2023/10/12 03:26:18;;;;;;;12.18;5.53;;;;;;;;;;5058407;28;20553;-67
2023/10/12 03:28:45;;;;;;;9.90;5.85;;;;;;;;;;5053457;28;20053;-68
2023/10/12 03:33:54;;;;;;;14.65;5.57;;;;;;;;;;5060722;28;20055;-68
2023/10/12 03:36:25;;;;;;;10.00;6.03;;;;;;;;;;5053006;28;20537;-66
2023/10/12 03:44:48;;;;;;;8.30;4.97;;;;;;;;;;5037081;28;20529;-68
2023/10/12 03:47:16;;;;;;;12.80;5.60;;;;;;;;;;5061059;28;20048;-67
2023/10/12 03:49:59;;;;;;;11.27;5.72;;;;;;;;;;5053190;28;20144;-68
2023/10/12 03:52:34;;;;;;;11.25;5.30;;;;;;;;;;5052692;28;20071;-67
2023/10/12 03:55:16;;;;;;;10.32;5.93;;;;;;;;;;5052899;28;20513;-67
2023/10/12 03:58:00;;;;;;;10.38;6.03;;;;;;;;;;5052723;28;20045;-68
2023/10/12 04:00:32;;;;;;;12.68;7.40;;;;;;;;;;5052683;28;20483;-67
2023/10/12 04:03:03;;;;;;;10.82;5.63;;;;;;;;;;5053261;28;20405;-68
2023/10/12 04:05:44;;;;;;;9.27;5.45;;;;;;;;;;5052787;28;20099;-67
2023/10/12 04:08:38;;;;;;;10.00;4.95;;;;;;;;;;5052861;28;20049;-67
2023/10/12 04:14:10;;;;;;;10.00;5.30;;;;;;;;;;5072377;28;20056;-67
2023/10/12 04:16:45;;;;;;;8.48;5.55;;;;;;;;;;5072383;28;20048;-67
2023/10/12 04:19:15;;;;;;;13.07;6.70;;;;;;;;;;5071487;28;20084;-67
2023/10/12 04:21:56;;;;;;;15.30;7.95;;;;;;;;;;5067495;28;20075;-68
2023/10/12 04:24:29;;;;;;;12.60;7.20;;;;;;;;;;5052400;28;20064;-68
2023/10/12 04:27:10;;;;;;;12.20;6.88;;;;;;;;;;5052807;28;20045;-66
2023/10/12 04:29:39;;;;;;;11.35;7.13;;;;;;;;;;5052425;28;20053;-67
2023/10/12 04:32:17;;;;;;;14.00;8.63;;;;;;;;;;5052265;28;20095;-67
2023/10/12 04:34:49;;;;;;;13.82;7.55;;;;;;;;;;5057167;28;20044;-67
2023/10/12 04:37:22;;;;;;;14.77;6.80;;;;;;;;;;5071918;28;20056;-67
2023/10/12 04:39:56;;;;;;;9.93;6.22;;;;;;;;;;5052522;28;20052;-67
2023/10/12 04:42:32;;;;;;;13.30;7.32;;;;;;;;;;5052032;28;20056;-67
2023/10/12 04:45:23;;;;;;;13.85;6.68;;;;;;;;;;5060634;28;20059;-67
2023/10/12 04:47:54;;;;;;;11.98;6.53;;;;;;;;;;5072075;28;20048;-67
2023/10/12 04:50:42;;;;;;;12.50;7.03;;;;;;;;;;5071941;28;20049;-67
2023/10/12 04:53:09;;;;;;;10.98;6.60;;;;;;;;;;5071753;28;20047;-67
2023/10/12 04:55:36;;;;;;;11.68;6.13;;;;;;;;;;5064249;28;20044;-68
2023/10/12 04:58:17;;;;;;;13.73;6.50;;;;;;;;;;5064090;28;20064;-68
2023/10/12 05:00:55;;;;;;;10.85;6.45;;;;;;;;;;5051876;28;20493;-67
2023/10/12 05:03:26;;;;;;;11.77;6.35;;;;;;;;;;5053941;28;20049;-67
2023/10/12 05:05:57;;;;;;;13.18;6.32;;;;;;;;;;5071687;28;20110;-68
2023/10/12 05:08:23;;;;;;;15.55;7.13;;;;;;;;;;5069199;28;20067;-67
2023/10/12 05:10:49;;;;;;;13.38;6.97;;;;;;;;;;5058414;28;20053;-67
2023/10/12 05:13:23;;;;;;;14.13;7.40;;;;;;;;;;5063349;28;20052;-67
2023/10/12 05:16:05;;;;;;;10.13;6.28;;;;;;;;;;5071936;28;20053;-67
2023/10/12 05:18:32;;;;;;;13.43;6.63;;;;;;;;;;5068273;28;20085;-67
2023/10/12 05:21:00;;;;;;;9.25;5.88;;;;;;;;;;5051865;28;20397;-68
2023/10/12 05:23:26;;;;;;;13.18;6.20;;;;;;;;;;5051723;28;20045;-67
2023/10/12 05:26:07;;;;;;;11.80;7.13;;;;;;;;;;5052040;28;20431;-68
2023/10/12 05:28:36;;;;;;;12.13;7.45;;;;;;;;;;5064011;28;20053;-67
2023/10/12 05:31:13;;;;;;;12.30;6.88;;;;;;;;;;5074104;28;20052;-68
2023/10/12 05:33:43;;;;;;;16.90;8.15;;;;;;;;;;5076114;28;20044;-68
2023/10/12 05:36:11;;;;;;;18.50;8.75;;;;;;;;;;5068132;28;20049;-67
2023/10/12 05:38:39;;;;;;;16.55;9.98;;;;;;;;;;5055731;28;20547;-67
2023/10/12 05:41:08;;;;;;;16.83;9.65;;;;;;;;;;5072559;28;20055;-66
2023/10/12 05:43:36;;;;;;;16.77;10.18;;;;;;;;;;5071279;28;20049;-67
2023/10/12 05:46:10;;;;;;;14.65;8.73;;;;;;;;;;5055614;28;20053;-68
2023/10/12 05:48:45;;;;;;;13.45;6.95;;;;;;;;;;5066749;28;20044;-67
2023/10/12 05:51:12;;;;;;;15.60;9.45;;;;;;;;;;5075569;28;20298;-68
2023/10/12 05:53:39;;;;;;;16.08;8.20;;;;;;;;;;5074866;28;20049;-68
2023/10/12 05:56:06;;;;;;;15.02;8.80;;;;;;;;;;5075295;28;20493;-68
2023/10/12 05:58:34;;;;;;;16.90;9.27;;;;;;;;;;5071632;28;20041;-67
2023/10/12 06:01:08;;;;;;;13.95;8.52;;;;;;;;;;5069478;28;20477;-67
2023/10/12 06:03:37;;;;;;;14.88;8.63;;;;;;;;;;5066222;28;20041;-68
2023/10/12 06:06:03;;;;;;;17.05;9.20;;;;;;;;;;5067195;28;20416;-68
2023/10/12 06:08:32;;;;;;;15.43;9.88;;;;;;;;;;5073991;28;20092;-68
2023/10/12 06:11:03;;;;;;;16.95;10.23;;;;;;;;;;5074950;28;20496;-68
2023/10/12 06:13:39;;;;;;;17.88;10.32;;;;;;;;;;5058633;28;20461;-67
2023/10/12 06:16:14;;;;;;;16.67;9.10;;;;;;;;;;5067686;28;20056;-68
2023/10/12 06:18:44;;;;;;;17.13;9.50;;;;;;;;;;5063062;28;20080;-68
2023/10/12 06:21:17;;;;;;;16.40;9.75;;;;;;;;;;5070893;28;20094;-67
2023/10/12 06:23:44;;;;;;;18.23;9.70;;;;;;;;;;5064093;28;20402;-68
2023/10/12 06:26:17;;;;;;;16.23;9.05;;;;;;;;;;5062964;28;20041;-68
2023/10/12 06:28:43;;;;;;;;;;;;;;;;;;5063698;28;20048;-67
2023/10/12 06:31:10;;;;;;;17.02;7.95;;;;;;;;;;5055360;28;19927;-68
2023/10/12 06:33:41;;;;;;;18.27;8.95;;;;;;;;;;5074379;28;20051;-67
2023/10/12 06:36:16;;;;;;;16.70;8.73;;;;;;;;;;5065943;28;20133;-67
2023/10/12 06:39:40;;;;;;;18.15;9.13;;;;;;;;;;5067747;28;20045;-68
2023/10/12 06:44:25;;;;;;;16.05;9.30;;;;;;;;;;5074117;28;20408;-67
2023/10/12 06:46:53;;;;;;;19.13;9.45;;;;;;;;;;5060385;28;20428;-67
2023/10/12 06:49:22;;;;;;;18.23;9.85;;;;;;;;;;5054281;28;20074;-67
2023/10/12 06:51:53;;;;;;;16.95;10.82;;;;;;;;;;5067250;28;20411;-70
2023/10/12 06:54:32;;;;;;;19.60;10.32;;;;;;;;;;5055940;28;20115;-68
2023/10/12 06:57:29;;;;;;;17.83;9.20;;;;;;;;;;5061448;28;20411;-68
2023/10/12 06:59:59;;;;;;;17.85;9.48;;;;;;;;;;5067485;28;20059;-68
2023/10/12 07:02:27;;;;;;;18.88;10.20;;;;;;;;;;5062366;28;20053;-68
2023/10/12 07:04:57;;;;;;;22.58;10.30;;;;;;;;;;5053876;28;20052;-67
2023/10/12 07:07:29;;;;;;;15.80;9.85;;;;;;;;;;5065118;28;20048;-66
2023/10/12 07:10:12;;;;;;;21.10;10.65;;;;;;;;;;5073301;28;20152;-67
2023/10/12 07:12:42;;;;;;;16.80;9.88;;;;;;;;;;5073244;28;20048;-68
2023/10/12 07:15:12;;;;;;;18.17;10.48;;;;;;;;;;5057002;28;20045;-67
2023/10/12 07:17:48;;;;;;;23.20;9.95;;;;;;;;;;5069653;28;20048;-68
2023/10/12 07:20:27;;;;;;;18.95;10.38;;;;;;;;;;5056840;28;20049;-68
2023/10/12 07:22:56;;;;;;;16.73;10.27;;;;;;;;;;5066258;28;20397;-68
2023/10/12 07:25:26;;;;;;;21.00;10.93;;;;;;;;;;5052705;28;20049;-67
2023/10/12 07:27:58;;;;;;;21.38;10.00;;;;;;;;;;5052711;28;20049;-68
2023/10/12 07:30:33;;;;;;;19.98;8.93;;;;;;;;;;5052977;28;20053;-68
2023/10/12 07:33:04;;;;;;;13.70;8.60;;;;;;;;;;5058690;28;20048;-68
2023/10/12 07:35:34;;;;;;;17.80;8.23;;;;;;;;;;5064051;28;20045;-67
2023/10/12 07:38:05;;;;;;;24.83;9.55;;;;;;;;;;5059972;28;20053;-68
2023/10/12 07:40:36;;;;;;;18.30;9.15;;;;;;;;;;5072466;28;20128;-68
2023/10/12 07:43:05;;;;;;;18.90;9.25;;;;;;;;;;5055996;28;20045;-68
2023/10/12 07:45:37;;;;;;;17.08;8.25;;;;;;;;;;5058278;28;20048;-67
2023/10/12 07:48:09;;;;;;;18.30;9.25;;;;;;;;;;5072617;28;20463;-68
2023/10/12 07:50:45;;;;;;;19.48;8.60;;;;;;;;;;5073363;28;20048;-68
2023/10/12 07:53:24;;;;;;;16.13;7.95;;;;;;;;;;5055227;28;20053;-67
2023/10/12 07:55:58;;;;;;;15.48;9.32;;;;;;;;;;5053263;28;20730;-68
2023/10/12 07:58:25;;;;;;;16.60;8.38;;;;;;;;;;5054067;28;20053;-67
2023/10/12 08:01:19;;;;;;;14.85;8.10;;;;;;;;;;5072680;28;20501;-68
2023/10/12 08:03:49;;;;;;;18.02;9.23;;;;;;;;;;5052639;28;20463;-67
2023/10/12 08:06:16;;;;;;;17.75;8.80;;;;;;;;;;5063263;28;20481;-68
2023/10/12 08:08:45;;;;;;;20.40;8.75;;;;;;;;;;5072396;28;20040;-67
2023/10/12 08:11:27;;;;;;;18.60;8.20;;;;;;;;;;5063828;28;20083;-67
2023/10/12 08:13:55;;;;;;;19.63;9.45;;;;;;;;;;5052175;28;20071;-67
2023/10/12 08:16:28;;;;;;;19.15;8.52;;;;;;;;;;5058923;28;20040;-67
2023/10/12 08:21:58;;;;;;;16.88;9.25;;;;;;;;;;5009257;28;20077;-67
2023/10/12 08:24:29;;;;;;;18.40;8.48;;;;;;;;;;5058602;28;20059;-67
2023/10/12 08:27:05;;;;;;;18.13;9.60;;;;;;;;;;5064384;28;20041;-67
2023/10/12 08:32:27;;;;;;;17.02;8.98;;;;;;;;;;5067036;28;20070;-68
2023/10/12 08:35:32;;;;;;;18.58;9.50;;;;;;;;;;5071493;28;20045;-68
2023/10/12 08:40:56;;;;;;;18.83;8.98;;;;;;;;;;5066927;28;20125;-68
2023/10/12 08:43:42;;;;;;;17.50;8.45;;;;;;;;;;5050938;28;20511;-69
2023/10/12 08:46:10;;;;;;;16.73;9.18;;;;;;;;;;5066474;28;20040;-67
2023/10/12 08:48:42;;;;;;;16.67;8.40;;;;;;;;;;5067108;28;20040;-68
2023/10/12 08:51:16;;;;;;;20.08;8.55;;;;;;;;;;5070533;28;20064;-67
2023/10/12 08:53:45;;;;;;;20.17;8.65;;;;;;;;;;5066052;28;20048;-67
2023/10/12 08:56:13;;;;;;;14.00;8.68;;;;;;;;;;5051175;28;20128;-68
2023/10/12 08:58:46;;;;;;;21.10;9.30;;;;;;;;;;5055552;28;20049;-68
2023/10/12 09:01:22;;;;;;;16.10;8.52;;;;;;;;;;5067439;28;20045;-67
2023/10/12 09:03:53;;;;;;;17.75;8.60;;;;;;;;;;5060245;28;20516;-67
2023/10/12 09:09:00;;;;;;;17.38;8.70;;;;;;;;;;5057885;28;20044;-68
2023/10/12 09:11:33;;;;;;;14.50;8.30;;;;;;;;;;5063146;28;20053;-67
2023/10/12 09:14:00;;;;;;;12.68;8.45;;;;;;;;;;5065444;28;20044;-67
2023/10/12 09:16:28;;;;;;;16.95;8.32;;;;;;;;;;5071127;28;20226;-68
2023/10/12 09:18:59;;;;;;;20.92;8.88;;;;;;;;;;5070619;28;20056;-67
2023/10/12 09:21:29;;;;;;;15.55;8.30;;;;;;;;;;5064059;28;20044;-67
2023/10/12 09:24:06;;;;;;;20.20;9.25;;;;;;;;;;5062079;28;20408;-68
2023/10/12 09:26:37;;;;;;;16.65;9.07;;;;;;;;;;5061953;28;20128;-67
2023/10/12 09:29:20;;;;;;;17.58;10.07;;;;;;;;;;5055324;28;20103;-68
2023/10/12 09:34:43;;;;;;;18.73;9.02;;;;;;;;;;5057795;28;20049;-67
2023/10/12 09:37:17;;;;;;;20.35;9.95;;;;;;;;;;5071034;28;20093;-68
2023/10/12 09:39:46;;;;;;;16.50;9.15;;;;;;;;;;5071542;28;20076;-67
2023/10/12 09:42:23;;;;;;;16.60;9.30;;;;;;;;;;5068840;28;20405;-67
2023/10/12 09:44:54;;;;;;;15.07;8.57;;;;;;;;;;5071173;28;20049;-68
2023/10/12 09:47:26;;;;;;;15.75;8.27;;;;;;;;;;5071252;28;20047;-68
2023/10/12 09:50:00;;;;;;;21.15;9.23;;;;;;;;;;5065776;28;20041;-68
2023/10/12 09:52:42;;;;;;;16.83;8.68;;;;;;;;;;5070474;28;20051;-68
2023/10/12 09:55:14;;;;;;;15.13;8.50;;;;;;;;;;5071138;28;20049;-68
2023/10/12 09:57:50;;;;;;;13.43;9.05;;;;;;;;;;5062287;28;20071;-68
2023/10/12 10:00:27;;;;;;;16.55;8.30;;;;;;;;;;5062386;28;20486;-68
2023/10/12 10:02:59;;;;;;;12.68;7.82;;;;;;;;;;5070675;28;20094;-68
2023/10/12 10:05:51;;;;;;;17.33;9.05;;;;;;;;;;5068140;28;20056;-67
2023/10/12 10:08:18;;;;;;;15.18;8.27;;;;;;;;;;5066775;28;20560;-68
2023/10/12 10:10:45;;;;;;;14.85;8.45;;;;;;;;;;5063036;28;20052;-68
2023/10/12 10:13:41;;;;;;;18.05;10.48;;;;;;;;;;5061442;28;20583;-68
2023/10/12 10:16:10;;;;;;;14.13;9.27;;;;;;;;;;5061876;28;20045;-68
2023/10/12 10:18:49;;;;;;;19.75;9.43;;;;;;;;;;5053361;28;20068;-68
2023/10/12 10:21:21;;;;;;;20.80;10.65;;;;;;;;;;5054217;28;20427;-68
2023/10/12 10:23:54;;;;;;;15.63;7.38;;;;;;;;;;5068644;28;20045;-68
2023/10/12 10:26:23;;;;;;;16.02;7.85;;;;;;;;;;5059736;28;20048;-67
2023/10/12 10:28:58;;;;;;;13.60;8.40;;;;;;;;;;5054901;28;20215;-68
2023/10/12 10:31:26;;;;;;;14.65;7.40;;;;;;;;;;5059159;28;20080;-68
2023/10/12 10:33:58;;;;;;;15.32;8.02;;;;;;;;;;5074029;28;20041;-67
2023/10/12 10:36:34;;;;;;;12.50;8.00;;;;;;;;;;5071197;28;20055;-68
2023/10/12 10:39:04;;;;;;;12.30;7.80;;;;;;;;;;5054103;28;20421;-67
2023/10/12 10:41:45;;;;;;;15.50;8.40;;;;;;;;;;5053752;28;20092;-68
2023/10/12 10:44:16;;;;;;;13.43;7.32;;;;;;;;;;5066034;28;20127;-68
2023/10/12 10:46:44;;;;;;;19.58;9.10;;;;;;;;;;5074382;28;20040;-68
2023/10/12 10:49:15;;;;;;;14.10;8.07;;;;;;;;;;5074079;28;20136;-68
2023/10/12 10:51:46;;;;;;;13.52;8.50;;;;;;;;;;5065357;28;20044;-68
2023/10/12 10:54:18;;;;;;;10.68;7.68;;;;;;;;;;5064884;28;20045;-68
2023/10/12 10:56:47;;;;;;;18.83;9.13;;;;;;;;;;5068270;28;20103;-68
2023/10/12 10:59:18;;;;;;;12.35;8.57;;;;;;;;;;5063079;28;20048;-68
2023/10/12 11:01:48;;;;;;;15.65;9.05;;;;;;;;;;5068028;28;20067;-68
2023/10/12 11:04:35;;;;;;;14.15;9.25;;;;;;;;;;5062363;28;20455;-68
2023/10/12 11:07:03;;;;;;;13.60;8.63;;;;;;;;;;5068884;28;20048;-68
2023/10/12 11:09:54;;;;;;;15.02;8.93;;;;;;;;;;5073333;28;20045;-68
2023/10/12 11:12:20;;;;;;;14.85;8.48;;;;;;;;;;5064630;28;20059;-68
2023/10/12 11:14:52;;;;;;;16.55;8.90;;;;;;;;;;5053693;28;20577;-68
2023/10/12 11:17:19;;;;;;;16.33;9.10;;;;;;;;;;5054408;28;20072;-68
2023/10/12 11:19:46;;;;;;;15.20;9.07;;;;;;;;;;5067541;28;20558;-68
2023/10/12 11:22:14;;;;;;;11.27;7.55;;;;;;;;;;5057569;28;20079;-68
2023/10/12 11:24:45;;;;;;;15.13;8.43;;;;;;;;;;5053742;28;20051;-68
2023/10/12 11:27:12;;;;;;;14.20;8.52;;;;;;;;;;5070774;28;20049;-68
2023/10/12 11:29:50;;;;;;;10.68;7.47;;;;;;;;;;5068717;28;20126;-68
2023/10/12 11:32:20;;;;;;;10.75;6.95;;;;;;;;;;5063209;28;20089;-68
2023/10/12 11:34:52;;;;;;;13.63;7.10;;;;;;;;;;5073587;28;20089;-68
2023/10/12 11:37:19;;;;;;;12.45;7.15;;;;;;;;;;5063943;28;20104;-68
2023/10/12 11:39:47;;;;;;;11.32;6.97;;;;;;;;;;5053795;28;20131;-67
2023/10/12 11:42:14;;;;;;;13.82;7.50;;;;;;;;;;5070751;28;20052;-68
2023/10/12 11:44:43;;;;;;;11.75;7.32;;;;;;;;;;5053244;28;20045;-69
2023/10/12 11:47:13;;;;;;;12.88;7.03;;;;;;;;;;5053494;28;20409;-67
2023/10/12 11:49:49;;;;;;;12.13;6.80;;;;;;;;;;5053119;28;20049;-69
2023/10/12 11:52:29;;;;;;;11.20;6.65;;;;;;;;;;5061145;28;20433;-68
2023/10/12 11:55:00;;;;;;;15.10;6.32;;;;;;;;;;5073448;28;20044;-68
2023/10/12 11:57:27;;;;;;;9.88;5.82;;;;;;;;;;5064871;28;20049;-68
2023/10/12 11:59:54;;;;;;;9.60;6.13;;;;;;;;;;5058765;28;20483;-69
2023/10/12 12:02:23;;;;;;;10.88;5.90;;;;;;;;;;5061589;28;20041;-68
2023/10/12 12:04:50;;;;;;;11.52;6.90;;;;;;;;;;5061783;28;20051;-68
2023/10/12 12:07:17;;;;;;;12.80;6.72;;;;;;;;;;5053016;28;20508;-68
2023/10/12 12:09:48;;;;;;;11.52;7.05;;;;;;;;;;5058687;28;20047;-68
2023/10/12 12:12:16;;;;;;;16.05;7.30;;;;;;;;;;5073171;28;20051;-67
2023/10/12 12:14:46;;;;;;;12.73;6.53;;;;;;;;;;5073088;28;20098;-68
2023/10/12 12:17:13;;;;;;;11.65;6.32;;;;;;;;;;5073194;28;20137;-68
2023/10/12 12:19:41;;;;;;;15.82;7.95;;;;;;;;;;5068661;28;20055;-68
2023/10/12 12:22:10;;;;;;;10.93;6.68;;;;;;;;;;5061193;28;20045;-68
2023/10/12 12:24:37;;;;;;;15.82;7.53;;;;;;;;;;5064871;28;20139;-68
2023/10/12 12:27:05;;;;;;;9.82;6.80;;;;;;;;;;5056715;28;20045;-69
2023/10/12 12:29:32;;;;;;;14.32;7.20;;;;;;;;;;5059763;28;20041;-69
2023/10/12 12:32:03;;;;;;;11.38;7.05;;;;;;;;;;5052851;28;20614;-69
2023/10/12 12:34:41;;;;;;;12.75;7.25;;;;;;;;;;5052556;28;20144;-68
2023/10/12 12:37:09;;;;;;;13.20;7.28;;;;;;;;;;5061013;28;20049;-68
2023/10/12 12:39:36;;;;;;;12.82;7.38;;;;;;;;;;5064752;28;20488;-68
2023/10/12 12:42:04;;;;;;;15.98;8.00;;;;;;;;;;5072387;28;20060;-68
2023/10/12 12:44:31;;;;;;;14.63;9.13;;;;;;;;;;5056032;28;20263;-68
2023/10/12 12:46:59;;;;;;;14.40;8.05;;;;;;;;;;5072375;28;20049;-68
2023/10/12 12:49:26;;;;;;;19.13;9.57;;;;;;;;;;5056784;28;20041;-68
2023/10/12 12:51:52;;;;;;;17.02;9.13;;;;;;;;;;5072334;28;20052;-68
2023/10/12 12:54:20;;;;;;;11.73;7.63;;;;;;;;;;5053932;28;20051;-68
2023/10/12 12:56:47;;;;;;;13.32;6.93;;;;;;;;;;5065340;28;20048;-69
2023/10/12 12:59:13;;;;;;;10.77;7.30;;;;;;;;;;5070337;28;20045;-67
2023/10/12 13:01:41;;;;;;;13.15;6.85;;;;;;;;;;5072580;28;20044;-67
2023/10/12 13:04:09;;;;;;;13.88;7.47;;;;;;;;;;5072322;28;20493;-68
2023/10/12 13:06:35;;;;;;;13.13;7.60;;;;;;;;;;5072360;28;20044;-67
2023/10/12 13:09:02;;;;;;;11.75;7.95;;;;;;;;;;5063941;28;20084;-67
2023/10/12 13:11:32;;;;;;;12.15;7.20;;;;;;;;;;5053718;28;20052;-68
2023/10/12 13:13:58;;;;;;;12.75;7.82;;;;;;;;;;5067466;28;20568;-68
2023/10/12 13:16:25;;;;;;;13.45;7.43;;;;;;;;;;5064845;28;20507;-68
2023/10/12 13:18:51;;;;;;;15.50;7.75;;;;;;;;;;5072235;28;20515;-68
2023/10/12 13:21:22;;;;;;;12.13;7.88;;;;;;;;;;5071977;28;20044;-68
2023/10/12 13:23:48;;;;;;;13.05;7.53;;;;;;;;;;5072004;28;20132;-68
2023/10/12 13:26:17;;;;;;;16.13;10.77;;;;;;;;;;5054112;28;20103;-68
2023/10/12 13:28:45;;;;;;;16.27;9.20;;;;;;;;;;5051960;28;20051;-68
2023/10/12 13:31:11;;;;;;;13.25;8.25;;;;;;;;;;5062162;28;20040;-68
2023/10/12 13:33:39;;;;;;;19.98;9.20;;;;;;;;;;5072245;28;20489;-68
2023/10/12 13:36:08;;;;;;;14.80;9.23;;;;;;;;;;5072302;28;20040;-68
2023/10/12 13:38:37;;;;;;;17.85;10.05;;;;;;;;;;5051682;28;20049;-68
2023/10/12 13:41:03;;;;;;;14.60;9.02;;;;;;;;;;5052091;28;20075;-68
2023/10/12 13:43:31;;;;;;;14.82;9.48;;;;;;;;;;5068680;28;20385;-69
2023/10/12 13:46:07;;;;;;;14.73;9.05;;;;;;;;;;5051800;28;20071;-67
2023/10/12 13:48:37;;;;;;;14.60;9.48;;;;;;;;;;5052137;28;20045;-68
2023/10/12 13:51:08;;;;;;;16.80;8.90;;;;;;;;;;5052498;28;20045;-68
2023/10/12 13:53:36;;;;;;;20.67;10.20;;;;;;;;;;5068246;28;20403;-68
2023/10/12 13:56:04;;;;;;;14.07;9.52;;;;;;;;;;5060142;28;20095;-68
2023/10/12 13:58:33;;;;;;;14.27;8.30;;;;;;;;;;5055442;28;20056;-68
2023/10/12 14:01:02;;;;;;;11.10;7.50;;;;;;;;;;5063198;28;20451;-68
2023/10/12 14:03:29;;;;;;;14.75;7.35;;;;;;;;;;5065920;28;20053;-69
2023/10/12 14:05:56;;;;;;;13.15;7.97;;;;;;;;;;5075486;28;20056;-68
2023/10/12 14:08:23;;;;;;;13.82;7.78;;;;;;;;;;5065267;28;20055;-69
2023/10/12 14:10:51;;;;;;;13.27;7.60;;;;;;;;;;5067995;28;20053;-68
2023/10/12 14:13:18;;;;;;;14.65;7.70;;;;;;;;;;5075676;28;20147;-68
2023/10/12 14:15:46;;;;;;;14.85;6.95;;;;;;;;;;5061869;28;20072;-67
2023/10/12 14:18:17;;;;;;;13.50;7.68;;;;;;;;;;5072309;28;20526;-68
2023/10/12 14:20:44;;;;;;;13.93;7.30;;;;;;;;;;5067771;28;20040;-67
2023/10/12 14:23:11;;;;;;;15.63;7.78;;;;;;;;;;5067693;28;20492;-68
2023/10/12 14:25:41;;;;;;;10.68;7.82;;;;;;;;;;5062293;28;20044;-68
2023/10/12 14:28:09;;;;;;;12.05;7.75;;;;;;;;;;5071444;28;20507;-68
2023/10/12 14:30:38;;;;;;;16.65;8.20;;;;;;;;;;5074305;28;20053;-68
2023/10/12 14:33:06;;;;;;;20.08;10.32;;;;;;;;;;5066814;28;20053;-68
2023/10/12 14:35:37;;;;;;;16.75;9.00;;;;;;;;;;5066801;28;20051;-68
2023/10/12 14:38:06;;;;;;;12.20;8.02;;;;;;;;;;5074434;28;20139;-68
2023/10/12 14:40:33;;;;;;;14.18;7.95;;;;;;;;;;5074679;28;20052;-69
2023/10/12 14:43:05;;;;;;;12.35;8.18;;;;;;;;;;5065972;28;20051;-68
2023/10/12 14:45:33;;;;;;;11.52;7.68;;;;;;;;;;5074751;28;20056;-67
2023/10/12 14:48:00;;;;;;;13.35;8.05;;;;;;;;;;5074452;28;20044;-68
2023/10/12 14:50:27;;;;;;;13.90;8.07;;;;;;;;;;5065861;28;20083;-68
2023/10/12 14:52:55;;;;;;;13.10;8.35;;;;;;;;;;5074391;28;20424;-68
2023/10/12 14:55:24;;;;;;;12.65;7.47;;;;;;;;;;5074162;28;20368;-69
2023/10/12 14:57:51;;;;;;;15.13;7.70;;;;;;;;;;5059577;28;20045;-68
2023/10/12 15:00:24;;;;;;;13.52;8.15;;;;;;;;;;5053994;28;20045;-68
2023/10/12 15:02:51;;;;;;;13.57;8.82;;;;;;;;;;5053974;28;20048;-69
2023/10/12 15:05:18;;;;;;;12.60;8.10;;;;;;;;;;5063759;28;20051;-69
2023/10/12 15:07:48;;;;;;;17.02;9.23;;;;;;;;;;5060459;28;20076;-68
2023/10/12 15:10:18;;;;;;;12.10;7.63;;;;;;;;;;5063630;28;20044;-68
2023/10/12 15:12:48;;;;;;;14.20;7.95;;;;;;;;;;5073915;28;20064;-68
2023/10/12 15:15:18;;;;;;;14.52;8.15;;;;;;;;;;5072947;28;20052;-68
2023/10/12 15:17:45;;;;;;;13.32;7.60;;;;;;;;;;5054368;28;20053;-68
2023/10/12 15:20:15;;;;;;;12.23;7.05;;;;;;;;;;5053825;28;20218;-69
2023/10/12 15:22:44;;;;;;;11.90;7.10;;;;;;;;;;5054010;28;20417;-69
2023/10/12 15:25:12;;;;;;;14.25;8.02;;;;;;;;;;5053978;28;20045;-69